sensor_id;sensor_type;location;lat;lon;timestamp;temperature;humidity
14283;DHT22;72649;59.274;18.450;2023-09-30T00:01:15;15.20;99.90
14283;DHT22;72649;59.274;18.450;2023-09-30T00:03:42;15.20;99.90
14283;DHT22;72649;59.274;18.450;2023-09-30T00:06:09;15.20;99.90
14283;DHT22;72649;59.274;18.450;2023-09-30T00:08:36;15.20;99.90
14283;DHT22;72649;59.274;18.450;2023-09-30T00:11:06;15.20;99.90
14283;DHT22;72649;59.274;18.450;2023-09-30T00:13:33;15.20;99.90
14283;DHT22;72649;59.274;18.450;2023-09-30T00:16:00;15.20;99.90
14283;DHT22;72649;59.274;18.450;2023-09-30T00:18:27;15.20;99.90
14283;DHT22;72649;59.274;18.450;2023-09-30T00:20:54;15.20;99.90
14283;DHT22;72649;59.274;18.450;2023-09-30T00:23:21;15.30;99.90
14283;DHT22;72649;59.274;18.450;2023-09-30T00:25:48;15.30;99.90
14283;DHT22;72649;59.274;18.450;2023-09-30T00:28:18;15.30;99.90
14283;DHT22;72649;59.274;18.450;2023-09-30T00:30:48;15.30;99.90
14283;DHT22;72649;59.274;18.450;2023-09-30T00:33:15;15.40;99.90
14283;DHT22;72649;59.274;18.450;2023-09-30T00:35:42;15.30;99.90
14283;DHT22;72649;59.274;18.450;2023-09-30T00:38:09;15.30;99.90
14283;DHT22;72649;59.274;18.450;2023-09-30T00:40:36;15.30;99.90
14283;DHT22;72649;59.274;18.450;2023-09-30T00:43:04;15.40;99.90
14283;DHT22;72649;59.274;18.450;2023-09-30T00:45:30;15.30;99.90
14283;DHT22;72649;59.274;18.450;2023-09-30T00:47:58;15.30;99.90
14283;DHT22;72649;59.274;18.450;2023-09-30T00:50:25;15.40;99.90
14283;DHT22;72649;59.274;18.450;2023-09-30T00:52:53;15.40;99.90
14283;DHT22;72649;59.274;18.450;2023-09-30T00:55:21;15.40;99.90
14283;DHT22;72649;59.274;18.450;2023-09-30T00:57:49;15.40;99.90
14283;DHT22;72649;59.274;18.450;2023-09-30T01:00:17;15.40;99.90
14283;DHT22;72649;59.274;18.450;2023-09-30T01:02:44;15.40;99.90
14283;DHT22;72649;59.274;18.450;2023-09-30T01:05:11;15.40;99.90
14283;DHT22;72649;59.274;18.450;2023-09-30T01:07:39;15.40;99.90
14283;DHT22;72649;59.274;18.450;2023-09-30T01:10:06;15.40;99.90
14283;DHT22;72649;59.274;18.450;2023-09-30T01:12:33;15.40;99.90
14283;DHT22;72649;59.274;18.450;2023-09-30T01:15:01;15.40;99.90
14283;DHT22;72649;59.274;18.450;2023-09-30T01:17:34;15.40;99.90
14283;DHT22;72649;59.274;18.450;2023-09-30T01:20:01;15.40;99.90
14283;DHT22;72649;59.274;18.450;2023-09-30T01:22:31;15.40;99.90
14283;DHT22;72649;59.274;18.450;2023-09-30T01:24:59;15.40;99.90
14283;DHT22;72649;59.274;18.450;2023-09-30T01:27:26;15.40;99.90
14283;DHT22;72649;59.274;18.450;2023-09-30T01:29:53;15.40;99.90
14283;DHT22;72649;59.274;18.450;2023-09-30T01:32:20;15.40;99.90
14283;DHT22;72649;59.274;18.450;2023-09-30T01:34:47;15.40;99.90
14283;DHT22;72649;59.274;18.450;2023-09-30T01:37:13;15.40;99.90
14283;DHT22;72649;59.274;18.450;2023-09-30T01:39:43;15.40;99.90
14283;DHT22;72649;59.274;18.450;2023-09-30T01:42:12;15.40;99.90
14283;DHT22;72649;59.274;18.450;2023-09-30T01:44:39;15.40;99.90
14283;DHT22;72649;59.274;18.450;2023-09-30T01:47:08;15.40;99.90
14283;DHT22;72649;59.274;18.450;2023-09-30T01:49:35;15.30;99.90
14283;DHT22;72649;59.274;18.450;2023-09-30T01:52:03;15.30;99.90
14283;DHT22;72649;59.274;18.450;2023-09-30T01:54:30;15.30;99.90
14283;DHT22;72649;59.274;18.450;2023-09-30T01:56:57;15.30;99.90
14283;DHT22;72649;59.274;18.450;2023-09-30T01:59:25;15.30;99.90
14283;DHT22;72649;59.274;18.450;2023-09-30T02:01:52;15.30;99.90
14283;DHT22;72649;59.274;18.450;2023-09-30T02:04:19;15.20;99.90
14283;DHT22;72649;59.274;18.450;2023-09-30T02:06:46;15.20;99.90
14283;DHT22;72649;59.274;18.450;2023-09-30T02:09:13;15.10;99.90
14283;DHT22;72649;59.274;18.450;2023-09-30T02:11:40;15.10;99.90
14283;DHT22;72649;59.274;18.450;2023-09-30T02:14:09;15.10;99.90
14283;DHT22;72649;59.274;18.450;2023-09-30T02:16:38;15.00;99.90
14283;DHT22;72649;59.274;18.450;2023-09-30T02:19:05;15.00;99.90
14283;DHT22;72649;59.274;18.450;2023-09-30T02:21:33;14.90;99.90
14283;DHT22;72649;59.274;18.450;2023-09-30T02:24:00;14.90;99.90
14283;DHT22;72649;59.274;18.450;2023-09-30T02:26:27;14.90;99.90
14283;DHT22;72649;59.274;18.450;2023-09-30T02:28:56;14.80;99.90
14283;DHT22;72649;59.274;18.450;2023-09-30T02:31:23;14.70;99.90
14283;DHT22;72649;59.274;18.450;2023-09-30T02:33:50;14.60;99.90
14283;DHT22;72649;59.274;18.450;2023-09-30T02:36:17;14.50;99.90
14283;DHT22;72649;59.274;18.450;2023-09-30T02:38:44;14.40;99.90
14283;DHT22;72649;59.274;18.450;2023-09-30T02:41:15;14.40;99.90
14283;DHT22;72649;59.274;18.450;2023-09-30T02:43:42;14.20;99.90
14283;DHT22;72649;59.274;18.450;2023-09-30T02:46:09;14.20;99.90
14283;DHT22;72649;59.274;18.450;2023-09-30T02:48:36;14.10;99.90
14283;DHT22;72649;59.274;18.450;2023-09-30T02:51:03;14.00;99.90
14283;DHT22;72649;59.274;18.450;2023-09-30T02:53:30;14.00;99.90
14283;DHT22;72649;59.274;18.450;2023-09-30T02:55:57;13.90;99.90
14283;DHT22;72649;59.274;18.450;2023-09-30T02:58:26;13.80;99.90
14283;DHT22;72649;59.274;18.450;2023-09-30T03:00:56;13.80;99.90
14283;DHT22;72649;59.274;18.450;2023-09-30T03:03:29;13.70;99.90
14283;DHT22;72649;59.274;18.450;2023-09-30T03:05:57;13.70;99.90
14283;DHT22;72649;59.274;18.450;2023-09-30T03:08:24;13.60;99.90
14283;DHT22;72649;59.274;18.450;2023-09-30T03:10:52;13.60;99.90
14283;DHT22;72649;59.274;18.450;2023-09-30T03:13:19;13.60;99.90
14283;DHT22;72649;59.274;18.450;2023-09-30T03:15:49;13.50;99.90
14283;DHT22;72649;59.274;18.450;2023-09-30T03:18:16;13.50;99.90
14283;DHT22;72649;59.274;18.450;2023-09-30T03:20:59;13.50;99.90
14283;DHT22;72649;59.274;18.450;2023-09-30T03:23:35;13.40;99.90
14283;DHT22;72649;59.274;18.450;2023-09-30T03:26:02;13.40;99.90
14283;DHT22;72649;59.274;18.450;2023-09-30T03:28:29;13.40;99.90
14283;DHT22;72649;59.274;18.450;2023-09-30T03:30:56;13.40;99.90
14283;DHT22;72649;59.274;18.450;2023-09-30T03:33:23;13.40;99.90
14283;DHT22;72649;59.274;18.450;2023-09-30T03:35:50;13.30;99.90
14283;DHT22;72649;59.274;18.450;2023-09-30T03:38:18;13.30;99.90
14283;DHT22;72649;59.274;18.450;2023-09-30T03:40:46;13.30;99.90
14283;DHT22;72649;59.274;18.450;2023-09-30T03:43:16;13.30;99.90
14283;DHT22;72649;59.274;18.450;2023-09-30T03:45:43;13.30;99.90
14283;DHT22;72649;59.274;18.450;2023-09-30T03:48:10;13.30;99.90
14283;DHT22;72649;59.274;18.450;2023-09-30T03:50:37;13.30;99.90
14283;DHT22;72649;59.274;18.450;2023-09-30T03:53:05;13.30;99.90
14283;DHT22;72649;59.274;18.450;2023-09-30T03:55:36;13.30;99.90
14283;DHT22;72649;59.274;18.450;2023-09-30T03:58:03;13.30;99.90
14283;DHT22;72649;59.274;18.450;2023-09-30T04:00:30;13.30;99.90
14283;DHT22;72649;59.274;18.450;2023-09-30T04:02:58;13.30;99.90
14283;DHT22;72649;59.274;18.450;2023-09-30T04:05:25;13.30;99.90
14283;DHT22;72649;59.274;18.450;2023-09-30T04:07:56;13.30;99.90
14283;DHT22;72649;59.274;18.450;2023-09-30T04:10:23;13.30;99.90
14283;DHT22;72649;59.274;18.450;2023-09-30T04:12:50;13.30;99.90
14283;DHT22;72649;59.274;18.450;2023-09-30T04:15:18;13.30;99.90
14283;DHT22;72649;59.274;18.450;2023-09-30T04:17:45;13.30;99.90
14283;DHT22;72649;59.274;18.450;2023-09-30T04:20:12;13.30;99.90
14283;DHT22;72649;59.274;18.450;2023-09-30T04:22:50;13.30;99.90
14283;DHT22;72649;59.274;18.450;2023-09-30T04:25:17;13.30;99.90
14283;DHT22;72649;59.274;18.450;2023-09-30T04:27:46;13.30;99.90
14283;DHT22;72649;59.274;18.450;2023-09-30T04:30:15;13.30;99.90
14283;DHT22;72649;59.274;18.450;2023-09-30T04:32:43;13.30;99.90
14283;DHT22;72649;59.274;18.450;2023-09-30T04:35:11;13.30;99.90
14283;DHT22;72649;59.274;18.450;2023-09-30T04:37:38;13.20;99.90
14283;DHT22;72649;59.274;18.450;2023-09-30T04:40:09;13.20;99.90
14283;DHT22;72649;59.274;18.450;2023-09-30T04:42:43;13.20;99.90
14283;DHT22;72649;59.274;18.450;2023-09-30T04:45:12;13.20;99.90
14283;DHT22;72649;59.274;18.450;2023-09-30T04:47:39;13.10;99.90
14283;DHT22;72649;59.274;18.450;2023-09-30T04:50:07;13.00;99.90
14283;DHT22;72649;59.274;18.450;2023-09-30T04:52:35;13.00;99.90
14283;DHT22;72649;59.274;18.450;2023-09-30T04:55:02;13.00;99.90
14283;DHT22;72649;59.274;18.450;2023-09-30T04:57:31;13.00;99.90
14283;DHT22;72649;59.274;18.450;2023-09-30T05:00:01;12.90;99.90
14283;DHT22;72649;59.274;18.450;2023-09-30T05:02:28;12.80;99.90
14283;DHT22;72649;59.274;18.450;2023-09-30T05:04:55;12.80;99.90
14283;DHT22;72649;59.274;18.450;2023-09-30T05:07:22;12.80;99.90
14283;DHT22;72649;59.274;18.450;2023-09-30T05:09:48;12.80;99.90
14283;DHT22;72649;59.274;18.450;2023-09-30T05:12:16;12.80;99.90
14283;DHT22;72649;59.274;18.450;2023-09-30T05:14:43;12.80;99.90
14283;DHT22;72649;59.274;18.450;2023-09-30T05:17:10;12.80;99.90
14283;DHT22;72649;59.274;18.450;2023-09-30T05:19:38;12.80;99.90
14283;DHT22;72649;59.274;18.450;2023-09-30T05:22:05;12.80;99.90
14283;DHT22;72649;59.274;18.450;2023-09-30T05:24:32;12.70;99.90
14283;DHT22;72649;59.274;18.450;2023-09-30T05:26:59;12.70;99.90
14283;DHT22;72649;59.274;18.450;2023-09-30T05:29:25;12.70;99.90
14283;DHT22;72649;59.274;18.450;2023-09-30T05:31:52;12.70;99.90
14283;DHT22;72649;59.274;18.450;2023-09-30T05:34:19;12.70;99.90
14283;DHT22;72649;59.274;18.450;2023-09-30T05:36:46;12.70;99.90
14283;DHT22;72649;59.274;18.450;2023-09-30T05:39:13;12.70;99.90
14283;DHT22;72649;59.274;18.450;2023-09-30T05:41:46;12.70;99.90
14283;DHT22;72649;59.274;18.450;2023-09-30T05:44:13;12.70;99.90
14283;DHT22;72649;59.274;18.450;2023-09-30T05:46:43;12.70;99.90
14283;DHT22;72649;59.274;18.450;2023-09-30T05:49:10;12.70;99.90
14283;DHT22;72649;59.274;18.450;2023-09-30T05:51:41;12.70;99.90
14283;DHT22;72649;59.274;18.450;2023-09-30T05:54:08;12.70;99.90
14283;DHT22;72649;59.274;18.450;2023-09-30T05:56:39;12.70;99.90
14283;DHT22;72649;59.274;18.450;2023-09-30T05:59:09;12.70;99.90
14283;DHT22;72649;59.274;18.450;2023-09-30T06:01:36;12.70;99.90
14283;DHT22;72649;59.274;18.450;2023-09-30T06:04:03;12.70;99.90
14283;DHT22;72649;59.274;18.450;2023-09-30T06:06:31;12.70;99.90
14283;DHT22;72649;59.274;18.450;2023-09-30T06:08:59;12.70;99.90
14283;DHT22;72649;59.274;18.450;2023-09-30T06:11:27;12.70;99.90
14283;DHT22;72649;59.274;18.450;2023-09-30T06:13:57;12.70;99.90
14283;DHT22;72649;59.274;18.450;2023-09-30T06:16:25;12.80;99.90
14283;DHT22;72649;59.274;18.450;2023-09-30T06:18:54;12.80;99.90
14283;DHT22;72649;59.274;18.450;2023-09-30T06:21:23;12.90;99.90
14283;DHT22;72649;59.274;18.450;2023-09-30T06:23:51;12.90;99.90
14283;DHT22;72649;59.274;18.450;2023-09-30T06:26:21;12.90;99.90
14283;DHT22;72649;59.274;18.450;2023-09-30T06:28:48;12.90;99.90
14283;DHT22;72649;59.274;18.450;2023-09-30T06:31:14;12.90;99.90
14283;DHT22;72649;59.274;18.450;2023-09-30T06:33:42;12.90;99.90
14283;DHT22;72649;59.274;18.450;2023-09-30T06:36:11;13.00;99.90
14283;DHT22;72649;59.274;18.450;2023-09-30T06:38:41;13.00;99.90
14283;DHT22;72649;59.274;18.450;2023-09-30T06:41:17;13.00;99.90
14283;DHT22;72649;59.274;18.450;2023-09-30T06:43:44;13.00;99.90
14283;DHT22;72649;59.274;18.450;2023-09-30T06:46:13;13.10;99.90
14283;DHT22;72649;59.274;18.450;2023-09-30T06:48:41;13.10;99.90
14283;DHT22;72649;59.274;18.450;2023-09-30T06:51:12;13.10;99.90
14283;DHT22;72649;59.274;18.450;2023-09-30T06:53:40;13.20;99.90
14283;DHT22;72649;59.274;18.450;2023-09-30T06:56:07;13.20;99.90
14283;DHT22;72649;59.274;18.450;2023-09-30T06:58:34;13.20;99.90
14283;DHT22;72649;59.274;18.450;2023-09-30T07:01:01;13.30;99.90
14283;DHT22;72649;59.274;18.450;2023-09-30T07:03:28;13.30;99.90
14283;DHT22;72649;59.274;18.450;2023-09-30T07:05:57;13.40;99.90
14283;DHT22;72649;59.274;18.450;2023-09-30T07:08:28;13.40;99.90
14283;DHT22;72649;59.274;18.450;2023-09-30T07:10:56;13.40;99.90
14283;DHT22;72649;59.274;18.450;2023-09-30T07:13:23;13.40;99.90
14283;DHT22;72649;59.274;18.450;2023-09-30T07:15:50;13.40;99.90
14283;DHT22;72649;59.274;18.450;2023-09-30T07:18:17;13.50;99.90
14283;DHT22;72649;59.274;18.450;2023-09-30T07:20:45;13.60;99.90
14283;DHT22;72649;59.274;18.450;2023-09-30T07:23:12;13.60;99.90
14283;DHT22;72649;59.274;18.450;2023-09-30T07:25:47;13.60;99.90
14283;DHT22;72649;59.274;18.450;2023-09-30T07:28:14;13.70;99.90
14283;DHT22;72649;59.274;18.450;2023-09-30T07:30:41;13.70;99.90
14283;DHT22;72649;59.274;18.450;2023-09-30T07:33:08;13.70;99.90
14283;DHT22;72649;59.274;18.450;2023-09-30T07:35:36;13.70;99.90
14283;DHT22;72649;59.274;18.450;2023-09-30T07:38:05;13.80;99.90
14283;DHT22;72649;59.274;18.450;2023-09-30T07:40:32;13.80;99.90
14283;DHT22;72649;59.274;18.450;2023-09-30T07:42:59;13.80;99.90
14283;DHT22;72649;59.274;18.450;2023-09-30T07:45:26;13.80;99.90
14283;DHT22;72649;59.274;18.450;2023-09-30T07:47:55;13.90;99.90
14283;DHT22;72649;59.274;18.450;2023-09-30T07:50:22;13.90;99.90
14283;DHT22;72649;59.274;18.450;2023-09-30T07:52:49;14.00;99.90
14283;DHT22;72649;59.274;18.450;2023-09-30T07:55:16;14.10;99.90
14283;DHT22;72649;59.274;18.450;2023-09-30T07:57:43;14.20;99.90
14283;DHT22;72649;59.274;18.450;2023-09-30T08:00:11;14.30;99.90
14283;DHT22;72649;59.274;18.450;2023-09-30T08:02:43;14.20;99.90
14283;DHT22;72649;59.274;18.450;2023-09-30T08:05:11;14.20;99.90
14283;DHT22;72649;59.274;18.450;2023-09-30T08:07:38;14.30;99.90
14283;DHT22;72649;59.274;18.450;2023-09-30T08:10:06;14.40;99.90
14283;DHT22;72649;59.274;18.450;2023-09-30T08:12:39;14.40;99.90
14283;DHT22;72649;59.274;18.450;2023-09-30T08:15:07;14.50;99.90
14283;DHT22;72649;59.274;18.450;2023-09-30T08:17:34;14.50;99.90
14283;DHT22;72649;59.274;18.450;2023-09-30T08:20:01;14.60;99.90
14283;DHT22;72649;59.274;18.450;2023-09-30T08:22:28;14.70;99.90
14283;DHT22;72649;59.274;18.450;2023-09-30T08:24:55;14.60;99.90
14283;DHT22;72649;59.274;18.450;2023-09-30T08:27:22;14.70;99.90
14283;DHT22;72649;59.274;18.450;2023-09-30T08:29:51;14.70;99.90
14283;DHT22;72649;59.274;18.450;2023-09-30T08:32:18;14.70;99.90
14283;DHT22;72649;59.274;18.450;2023-09-30T08:34:45;14.80;99.90
14283;DHT22;72649;59.274;18.450;2023-09-30T08:37:12;14.80;99.90
14283;DHT22;72649;59.274;18.450;2023-09-30T08:39:39;14.90;99.90
14283;DHT22;72649;59.274;18.450;2023-09-30T08:42:10;15.00;99.90
14283;DHT22;72649;59.274;18.450;2023-09-30T08:44:41;15.00;99.90
14283;DHT22;72649;59.274;18.450;2023-09-30T08:47:08;15.00;99.90
14283;DHT22;72649;59.274;18.450;2023-09-30T08:49:41;15.00;99.90
14283;DHT22;72649;59.274;18.450;2023-09-30T08:52:09;14.90;99.90
14283;DHT22;72649;59.274;18.450;2023-09-30T08:54:37;14.90;99.90
14283;DHT22;72649;59.274;18.450;2023-09-30T08:57:05;14.90;99.90
14283;DHT22;72649;59.274;18.450;2023-09-30T08:59:37;15.00;99.90
14283;DHT22;72649;59.274;18.450;2023-09-30T09:02:08;15.00;99.90
14283;DHT22;72649;59.274;18.450;2023-09-30T09:04:37;15.10;99.90
14283;DHT22;72649;59.274;18.450;2023-09-30T09:07:06;15.20;99.90
14283;DHT22;72649;59.274;18.450;2023-09-30T09:09:33;15.30;99.90
14283;DHT22;72649;59.274;18.450;2023-09-30T09:12:00;15.50;99.90
14283;DHT22;72649;59.274;18.450;2023-09-30T09:14:41;15.50;99.90
14283;DHT22;72649;59.274;18.450;2023-09-30T09:17:10;15.40;99.90
14283;DHT22;72649;59.274;18.450;2023-09-30T09:19:37;15.30;99.90
14283;DHT22;72649;59.274;18.450;2023-09-30T09:22:04;15.30;99.90
14283;DHT22;72649;59.274;18.450;2023-09-30T09:24:35;15.20;99.90
14283;DHT22;72649;59.274;18.450;2023-09-30T09:27:09;15.30;99.90
14283;DHT22;72649;59.274;18.450;2023-09-30T09:29:40;15.30;99.90
14283;DHT22;72649;59.274;18.450;2023-09-30T09:32:10;15.30;99.90
14283;DHT22;72649;59.274;18.450;2023-09-30T09:34:42;15.30;99.90
14283;DHT22;72649;59.274;18.450;2023-09-30T09:37:14;15.30;99.90
14283;DHT22;72649;59.274;18.450;2023-09-30T09:39:56;15.40;99.90
14283;DHT22;72649;59.274;18.450;2023-09-30T09:42:32;15.40;99.90
14283;DHT22;72649;59.274;18.450;2023-09-30T09:45:05;15.30;99.90
14283;DHT22;72649;59.274;18.450;2023-09-30T09:47:33;15.40;99.90
14283;DHT22;72649;59.274;18.450;2023-09-30T09:50:03;15.50;99.90
14283;DHT22;72649;59.274;18.450;2023-09-30T09:52:31;15.60;99.90
14283;DHT22;72649;59.274;18.450;2023-09-30T09:55:02;15.60;99.90
14283;DHT22;72649;59.274;18.450;2023-09-30T09:57:30;15.60;99.90
14283;DHT22;72649;59.274;18.450;2023-09-30T09:59:58;15.60;99.90
14283;DHT22;72649;59.274;18.450;2023-09-30T10:02:26;15.70;99.90
14283;DHT22;72649;59.274;18.450;2023-09-30T10:04:55;15.70;99.90
14283;DHT22;72649;59.274;18.450;2023-09-30T10:07:29;15.70;99.90
14283;DHT22;72649;59.274;18.450;2023-09-30T10:10:01;15.70;99.90
14283;DHT22;72649;59.274;18.450;2023-09-30T10:12:36;15.80;99.90
14283;DHT22;72649;59.274;18.450;2023-09-30T10:18:08;16.30;99.90
14283;DHT22;72649;59.274;18.450;2023-09-30T10:20:43;16.30;99.90
14283;DHT22;72649;59.274;18.450;2023-09-30T10:23:28;16.10;99.90
14283;DHT22;72649;59.274;18.450;2023-09-30T10:28:45;15.80;99.90
14283;DHT22;72649;59.274;18.450;2023-09-30T10:31:17;15.70;99.90
14283;DHT22;72649;59.274;18.450;2023-09-30T10:36:40;16.10;99.90
14283;DHT22;72649;59.274;18.450;2023-09-30T10:39:13;16.50;99.90
14283;DHT22;72649;59.274;18.450;2023-09-30T10:47:00;17.50;99.90
14283;DHT22;72649;59.274;18.450;2023-09-30T10:51:56;17.30;99.90
14283;DHT22;72649;59.274;18.450;2023-09-30T10:54:26;16.90;99.90
14283;DHT22;72649;59.274;18.450;2023-09-30T10:56:54;16.70;99.90
14283;DHT22;72649;59.274;18.450;2023-09-30T10:59:26;16.60;99.90
14283;DHT22;72649;59.274;18.450;2023-09-30T11:01:53;16.50;99.90
14283;DHT22;72649;59.274;18.450;2023-09-30T11:04:20;16.50;99.90
14283;DHT22;72649;59.274;18.450;2023-09-30T11:06:48;16.50;99.90
14283;DHT22;72649;59.274;18.450;2023-09-30T11:09:20;17.00;99.90
14283;DHT22;72649;59.274;18.450;2023-09-30T11:11:52;17.10;99.90
14283;DHT22;72649;59.274;18.450;2023-09-30T11:14:26;17.30;99.90
14283;DHT22;72649;59.274;18.450;2023-09-30T11:17:00;17.10;99.90
14283;DHT22;72649;59.274;18.450;2023-09-30T11:19:47;16.80;99.90
14283;DHT22;72649;59.274;18.450;2023-09-30T11:22:17;16.50;99.90
14283;DHT22;72649;59.274;18.450;2023-09-30T11:24:44;16.20;99.90
14283;DHT22;72649;59.274;18.450;2023-09-30T11:27:13;16.00;99.90
14283;DHT22;72649;59.274;18.450;2023-09-30T11:29:49;15.80;99.90
14283;DHT22;72649;59.274;18.450;2023-09-30T11:32:27;15.60;99.90
14283;DHT22;72649;59.274;18.450;2023-09-30T11:34:55;15.50;99.90
14283;DHT22;72649;59.274;18.450;2023-09-30T11:37:22;15.40;99.90
14283;DHT22;72649;59.274;18.450;2023-09-30T11:39:49;15.60;99.90
14283;DHT22;72649;59.274;18.450;2023-09-30T11:42:17;15.80;99.90
14283;DHT22;72649;59.274;18.450;2023-09-30T11:44:47;16.30;99.90
14283;DHT22;72649;59.274;18.450;2023-09-30T11:47:14;16.80;99.90
14283;DHT22;72649;59.274;18.450;2023-09-30T11:49:43;16.90;99.90
14283;DHT22;72649;59.274;18.450;2023-09-30T11:52:15;17.00;99.90
14283;DHT22;72649;59.274;18.450;2023-09-30T11:54:45;17.20;99.90
14283;DHT22;72649;59.274;18.450;2023-09-30T11:57:15;17.60;99.90
14283;DHT22;72649;59.274;18.450;2023-09-30T11:59:44;17.60;99.90
14283;DHT22;72649;59.274;18.450;2023-09-30T12:02:15;17.70;99.90
14283;DHT22;72649;59.274;18.450;2023-09-30T12:04:46;17.80;99.90
14283;DHT22;72649;59.274;18.450;2023-09-30T12:07:16;17.90;99.90
14283;DHT22;72649;59.274;18.450;2023-09-30T12:09:43;17.80;99.90
14283;DHT22;72649;59.274;18.450;2023-09-30T12:12:10;17.60;99.90
14283;DHT22;72649;59.274;18.450;2023-09-30T12:14:39;17.40;99.90
14283;DHT22;72649;59.274;18.450;2023-09-30T12:17:06;17.40;99.90
14283;DHT22;72649;59.274;18.450;2023-09-30T12:19:38;17.50;99.90
14283;DHT22;72649;59.274;18.450;2023-09-30T12:22:05;17.40;99.90
14283;DHT22;72649;59.274;18.450;2023-09-30T12:24:33;17.70;99.90
14283;DHT22;72649;59.274;18.450;2023-09-30T12:27:00;17.80;99.90
14283;DHT22;72649;59.274;18.450;2023-09-30T12:29:28;17.70;99.90
14283;DHT22;72649;59.274;18.450;2023-09-30T12:31:55;17.70;99.90
14283;DHT22;72649;59.274;18.450;2023-09-30T12:34:22;17.80;99.90
14283;DHT22;72649;59.274;18.450;2023-09-30T12:36:54;18.00;99.90
14283;DHT22;72649;59.274;18.450;2023-09-30T12:39:24;17.80;99.90
14283;DHT22;72649;59.274;18.450;2023-09-30T12:41:53;18.10;99.90
14283;DHT22;72649;59.274;18.450;2023-09-30T12:44:20;17.90;99.90
14283;DHT22;72649;59.274;18.450;2023-09-30T12:46:52;18.00;99.90
14283;DHT22;72649;59.274;18.450;2023-09-30T12:49:19;17.90;99.90
14283;DHT22;72649;59.274;18.450;2023-09-30T12:51:47;17.90;99.90
14283;DHT22;72649;59.274;18.450;2023-09-30T12:54:14;17.50;99.90
14283;DHT22;72649;59.274;18.450;2023-09-30T12:56:41;17.20;99.90
14283;DHT22;72649;59.274;18.450;2023-09-30T12:59:09;17.00;99.90
14283;DHT22;72649;59.274;18.450;2023-09-30T13:01:35;16.80;99.90
14283;DHT22;72649;59.274;18.450;2023-09-30T13:04:03;16.80;99.90
14283;DHT22;72649;59.274;18.450;2023-09-30T13:06:32;16.90;99.90
14283;DHT22;72649;59.274;18.450;2023-09-30T13:09:02;17.00;99.90
14283;DHT22;72649;59.274;18.450;2023-09-30T13:11:31;17.10;99.90
14283;DHT22;72649;59.274;18.450;2023-09-30T13:14:02;17.20;99.90
14283;DHT22;72649;59.274;18.450;2023-09-30T13:16:29;17.20;99.90
14283;DHT22;72649;59.274;18.450;2023-09-30T13:18:56;17.10;99.90
14283;DHT22;72649;59.274;18.450;2023-09-30T13:21:23;17.30;99.90
14283;DHT22;72649;59.274;18.450;2023-09-30T13:23:50;17.30;99.90
14283;DHT22;72649;59.274;18.450;2023-09-30T13:26:17;17.30;99.90
14283;DHT22;72649;59.274;18.450;2023-09-30T13:28:44;17.10;99.90
14283;DHT22;72649;59.274;18.450;2023-09-30T13:31:11;17.10;99.90
14283;DHT22;72649;59.274;18.450;2023-09-30T13:33:38;17.00;99.90
14283;DHT22;72649;59.274;18.450;2023-09-30T13:36:05;17.20;99.90
14283;DHT22;72649;59.274;18.450;2023-09-30T13:38:32;17.10;99.90
14283;DHT22;72649;59.274;18.450;2023-09-30T13:40:59;17.30;99.90
14283;DHT22;72649;59.274;18.450;2023-09-30T13:43:28;17.40;99.90
14283;DHT22;72649;59.274;18.450;2023-09-30T13:45:54;17.50;99.90
14283;DHT22;72649;59.274;18.450;2023-09-30T13:48:23;17.40;99.90
14283;DHT22;72649;59.274;18.450;2023-09-30T13:50:50;17.20;99.90
14283;DHT22;72649;59.274;18.450;2023-09-30T13:53:17;17.10;99.90
14283;DHT22;72649;59.274;18.450;2023-09-30T13:55:44;16.90;99.90
14283;DHT22;72649;59.274;18.450;2023-09-30T13:58:12;17.00;99.90
14283;DHT22;72649;59.274;18.450;2023-09-30T14:00:39;17.00;99.90
14283;DHT22;72649;59.274;18.450;2023-09-30T14:03:06;17.00;99.90
14283;DHT22;72649;59.274;18.450;2023-09-30T14:05:34;16.90;99.90
14283;DHT22;72649;59.274;18.450;2023-09-30T14:08:02;16.80;99.90
14283;DHT22;72649;59.274;18.450;2023-09-30T14:10:30;16.90;99.90
14283;DHT22;72649;59.274;18.450;2023-09-30T14:12:57;16.90;99.90
14283;DHT22;72649;59.274;18.450;2023-09-30T14:15:24;17.00;99.90
14283;DHT22;72649;59.274;18.450;2023-09-30T14:17:55;16.90;99.90
14283;DHT22;72649;59.274;18.450;2023-09-30T14:20:25;16.90;99.90
14283;DHT22;72649;59.274;18.450;2023-09-30T14:22:52;16.80;99.90
14283;DHT22;72649;59.274;18.450;2023-09-30T14:25:19;16.70;99.90
14283;DHT22;72649;59.274;18.450;2023-09-30T14:27:45;16.60;99.90
14283;DHT22;72649;59.274;18.450;2023-09-30T14:30:14;16.50;99.90
14283;DHT22;72649;59.274;18.450;2023-09-30T14:32:41;16.40;99.90
14283;DHT22;72649;59.274;18.450;2023-09-30T14:35:09;16.40;99.90
14283;DHT22;72649;59.274;18.450;2023-09-30T14:37:36;16.40;99.90
14283;DHT22;72649;59.274;18.450;2023-09-30T14:40:03;16.50;99.90
14283;DHT22;72649;59.274;18.450;2023-09-30T14:42:38;16.30;99.90
14283;DHT22;72649;59.274;18.450;2023-09-30T14:45:05;16.20;99.90
14283;DHT22;72649;59.274;18.450;2023-09-30T14:47:32;16.20;99.90
14283;DHT22;72649;59.274;18.450;2023-09-30T14:50:00;16.20;99.90
14283;DHT22;72649;59.274;18.450;2023-09-30T14:52:28;16.10;99.90
14283;DHT22;72649;59.274;18.450;2023-09-30T14:54:55;16.10;99.90
14283;DHT22;72649;59.274;18.450;2023-09-30T14:57:22;16.10;99.90
14283;DHT22;72649;59.274;18.450;2023-09-30T14:59:49;16.10;99.90
14283;DHT22;72649;59.274;18.450;2023-09-30T15:02:16;16.10;99.90
14283;DHT22;72649;59.274;18.450;2023-09-30T15:04:44;16.00;99.90
14283;DHT22;72649;59.274;18.450;2023-09-30T15:07:11;16.00;99.90
14283;DHT22;72649;59.274;18.450;2023-09-30T15:09:38;16.00;99.90
14283;DHT22;72649;59.274;18.450;2023-09-30T15:12:09;16.00;99.90
14283;DHT22;72649;59.274;18.450;2023-09-30T15:14:36;16.00;99.90
14283;DHT22;72649;59.274;18.450;2023-09-30T15:17:03;16.00;99.90
14283;DHT22;72649;59.274;18.450;2023-09-30T15:19:30;15.90;99.90
14283;DHT22;72649;59.274;18.450;2023-09-30T15:21:57;15.90;99.90
14283;DHT22;72649;59.274;18.450;2023-09-30T15:24:25;15.90;99.90
14283;DHT22;72649;59.274;18.450;2023-09-30T15:26:52;15.90;99.90
14283;DHT22;72649;59.274;18.450;2023-09-30T15:29:19;15.70;99.90
14283;DHT22;72649;59.274;18.450;2023-09-30T15:31:47;15.70;99.90
14283;DHT22;72649;59.274;18.450;2023-09-30T15:34:14;15.60;99.90
14283;DHT22;72649;59.274;18.450;2023-09-30T15:36:41;15.60;99.90
14283;DHT22;72649;59.274;18.450;2023-09-30T15:39:08;15.50;99.90